Главная страница
METAR-TAF:

METAR-TAF

Аэропорты :

DuBois / Falls Creek, Пенсильвания, США

широта: 41-11N, долгота: 078-54W, высота над уровнем моря: 555 м

Текущие метеонаблюдения

Эта сводка был подготовлена 17 минут назад, в 09:53 UTC
Ветер 4 Узел от восточный
Температура 12°C
Влажность 94%
Давление 1021 hPa
Видимость: 11.3 км
небольшая облачность на высоте 7500 фута

METAR: KDUJ 060953Z AUTO 08004KT 7SM FEW075 12/11 A3016 RMK AO2 SLP204 T01220111

Время: 06:10 (10:10 UTC)

Прогноз

Эта сводка был подготовлена 1 час и 10 минут назад, в 09:00 UTC
Прогноз действительный с 06-го 09 UTC до 07-го 06 UTC
Ветер 4 Узел переменных направлений
Видимость: 10 км
Отдельные облака на высоте 5000 фута
временами
С 06-го 10 UTC до 06-го 12 UTC
Видимость: 6.4 км
дымка
С 06-го 2300 UTC
Ветер 5 Узел от северо-восточный
Видимость: 10 км
Отдельные облака на высоте 5000 фута

TAF: KDUJ 060900Z 0609/0706 VRB04KT P6SM SCT050 TEMPO 0610/0612 4SM BR FM062300 05005KT P6SM SCT050

Метеонаблюдения и прогнозы для более 4000 аэропортов (сводки METAR и TAF).

Имеющиеся станции представлены на карте желтыми и красными точками.

Чтобы увидеть название станции, наведите на нее мышь.

Затем щелкните, чтобы увидеть метеонаблюдения и метеопрогнозы.

Управление картой: чтобы увеличить масштаб, щелкните зеленые кнопки с черным крестиком; чтобы уменьшить масштаб, щелкните зеленую кнопку с тире; для просмотра соседних карт щелкайте зеленые стрелки.


METAR-TAF: